createdAt,value
2018-12-26T00:01:14.435Z,15.50
2018-12-26T00:03:44.966Z,15.50
2018-12-26T00:06:14.927Z,15.50
2018-12-26T00:08:44.900Z,15.50
2018-12-26T00:11:14.852Z,15.50
2018-12-26T00:13:44.850Z,15.60
2018-12-26T00:16:14.793Z,15.60
2018-12-26T00:18:44.818Z,15.60
2018-12-26T00:21:15.120Z,15.60
2018-12-26T00:23:45.063Z,15.50
2018-12-26T00:26:15.037Z,15.50
2018-12-26T00:28:45.036Z,15.50
2018-12-26T00:31:14.977Z,15.50
2018-12-26T00:33:44.932Z,15.60
2018-12-26T00:36:14.918Z,15.50
2018-12-26T00:38:44.840Z,15.50
2018-12-26T00:41:14.880Z,15.50
2018-12-26T00:43:44.863Z,15.50
2018-12-26T00:46:14.806Z,15.50
2018-12-26T00:48:44.774Z,15.50
2018-12-26T00:51:14.759Z,15.50
2018-12-26T00:53:44.699Z,15.50
2018-12-26T00:56:14.662Z,15.50
2018-12-26T00:58:44.643Z,15.50
2018-12-26T01:01:14.603Z,15.50
2018-12-26T01:03:44.539Z,15.50
2018-12-26T01:06:14.515Z,15.50
2018-12-26T01:08:44.475Z,15.40
2018-12-26T01:11:14.399Z,15.40
2018-12-26T01:13:44.386Z,15.40
2018-12-26T01:16:14.414Z,15.40
2018-12-26T01:18:44.340Z,15.40
2018-12-26T01:21:14.306Z,15.40
2018-12-26T01:23:44.263Z,15.40
2018-12-26T01:26:19.106Z,15.40
2018-12-26T01:28:45.854Z,15.40
2018-12-26T01:31:15.828Z,15.40
2018-12-26T01:33:45.784Z,15.40
2018-12-26T01:36:15.779Z,15.40
2018-12-26T01:38:45.751Z,15.40
2018-12-26T01:41:15.675Z,15.40
2018-12-26T01:43:45.743Z,15.40
2018-12-26T01:46:15.773Z,15.40
2018-12-26T01:48:45.727Z,15.40
2018-12-26T01:51:15.723Z,15.40
2018-12-26T01:53:45.668Z,15.40
2018-12-26T01:56:15.612Z,15.40
2018-12-26T01:58:45.579Z,15.40
2018-12-26T02:01:15.551Z,15.40
2018-12-26T02:03:45.498Z,15.30
2018-12-26T02:06:15.632Z,15.30
2018-12-26T02:08:45.542Z,15.30
2018-12-26T02:11:15.515Z,15.30
2018-12-26T02:13:45.490Z,15.30
2018-12-26T02:16:15.427Z,15.30
2018-12-26T02:18:45.392Z,15.30
2018-12-26T02:21:15.355Z,15.30
2018-12-26T02:23:45.439Z,15.30
2018-12-26T02:26:15.371Z,15.30
2018-12-26T02:28:45.415Z,15.30
2018-12-26T02:31:15.443Z,15.30
2018-12-26T02:33:45.531Z,15.30
2018-12-26T02:36:15.598Z,15.30
2018-12-26T02:38:45.538Z,15.30
2018-12-26T02:41:15.488Z,15.30
2018-12-26T02:43:45.473Z,15.30
2018-12-26T02:46:15.644Z,15.20
2018-12-26T02:48:45.699Z,15.20
2018-12-26T02:51:15.795Z,15.20
2018-12-26T02:53:45.821Z,15.20
2018-12-26T02:56:15.764Z,15.20
2018-12-26T02:58:45.749Z,15.20
2018-12-26T03:01:15.728Z,15.20
2018-12-26T03:03:45.751Z,15.20
2018-12-26T03:06:15.712Z,15.20
2018-12-26T03:08:45.656Z,15.20
2018-12-26T03:11:15.605Z,15.20
2018-12-26T03:13:46.066Z,15.20
2018-12-26T03:16:16.137Z,15.20
2018-12-26T03:18:46.114Z,15.20
2018-12-26T03:21:16.103Z,15.20
2018-12-26T03:23:46.040Z,15.20
2018-12-26T03:26:16.018Z,15.20
2018-12-26T03:28:45.991Z,15.10
2018-12-26T03:31:15.948Z,15.10
2018-12-26T03:33:45.993Z,15.10
2018-12-26T03:36:16.107Z,15.10
2018-12-26T03:38:46.143Z,15.10
2018-12-26T03:41:16.197Z,15.10
2018-12-26T03:43:46.467Z,15.10
2018-12-26T03:46:16.419Z,15.10
2018-12-26T03:48:46.469Z,15.20
2018-12-26T03:51:16.562Z,15.10
2018-12-26T03:53:46.577Z,15.10
2018-12-26T03:56:16.508Z,15.10
2018-12-26T03:58:46.519Z,15.10
2018-12-26T04:01:16.591Z,15.10
2018-12-26T04:03:46.522Z,15.10
2018-12-26T04:06:16.767Z,15.10
2018-12-26T04:08:46.943Z,15.00
2018-12-26T04:11:16.899Z,15.10
2018-12-26T04:13:47.403Z,15.00
2018-12-26T04:16:17.767Z,15.10
2018-12-26T04:18:47.936Z,15.10
2018-12-26T04:21:17.908Z,15.10
2018-12-26T04:23:48.048Z,15.00
2018-12-26T04:26:17.998Z,15.00
2018-12-26T04:28:48.024Z,15.00
2018-12-26T04:31:17.968Z,15.00
2018-12-26T04:33:47.955Z,15.00
2018-12-26T04:36:17.980Z,15.00
2018-12-26T04:38:47.934Z,15.00
2018-12-26T04:41:17.897Z,15.00
2018-12-26T04:43:47.896Z,15.00
2018-12-26T04:46:17.823Z,15.00
2018-12-26T04:48:47.803Z,15.00
2018-12-26T04:51:17.857Z,15.00
2018-12-26T04:53:47.824Z,15.00
2018-12-26T04:56:17.792Z,15.00
2018-12-26T04:58:47.764Z,15.00
2018-12-26T05:01:17.716Z,15.00
2018-12-26T05:03:47.659Z,15.00
2018-12-26T05:06:17.616Z,15.00
2018-12-26T05:08:47.572Z,15.00
2018-12-26T05:11:17.751Z,15.00
2018-12-26T05:13:47.794Z,15.00
2018-12-26T05:16:17.754Z,15.00
2018-12-26T05:18:47.716Z,15.00
2018-12-26T05:21:17.675Z,15.00
2018-12-26T05:23:47.625Z,15.00
2018-12-26T05:26:17.688Z,15.00
2018-12-26T05:28:47.652Z,15.00
2018-12-26T05:31:17.584Z,14.90
2018-12-26T05:33:47.529Z,15.00
2018-12-26T05:36:17.483Z,15.00
2018-12-26T05:38:47.477Z,15.00
2018-12-26T05:41:17.658Z,15.00
2018-12-26T05:43:48.124Z,15.00
2018-12-26T05:46:18.110Z,15.00
2018-12-26T05:48:48.085Z,15.00
2018-12-26T05:51:18.027Z,15.00
2018-12-26T05:53:48.043Z,15.00
2018-12-26T05:56:17.967Z,15.00
2018-12-26T05:58:47.983Z,15.00
2018-12-26T06:01:17.928Z,15.00
2018-12-26T06:03:47.881Z,15.00
2018-12-26T06:06:17.829Z,15.10
2018-12-26T06:08:47.769Z,15.10
2018-12-26T06:11:17.718Z,15.10
2018-12-26T06:13:47.666Z,15.10
2018-12-26T06:16:17.623Z,15.10
2018-12-26T06:18:47.660Z,15.10
2018-12-26T06:21:17.624Z,15.10
2018-12-26T06:23:47.555Z,15.10
2018-12-26T06:26:17.554Z,15.10
2018-12-26T06:28:47.541Z,15.10
2018-12-26T06:31:17.476Z,15.10
2018-12-26T06:33:47.417Z,15.00
2018-12-26T06:36:17.387Z,15.00
2018-12-26T06:38:47.455Z,15.00
2018-12-26T06:41:17.398Z,15.00
2018-12-26T06:43:47.494Z,15.00
2018-12-26T06:46:17.442Z,15.00
2018-12-26T06:48:47.410Z,15.00
2018-12-26T06:51:17.379Z,15.00
2018-12-26T06:53:47.308Z,15.00
2018-12-26T06:56:17.315Z,15.00
2018-12-26T06:58:47.353Z,15.00
2018-12-26T07:01:17.355Z,15.00
2018-12-26T07:03:47.330Z,15.00
2018-12-26T07:06:17.335Z,15.00
2018-12-26T07:08:47.264Z,14.90
2018-12-26T07:11:17.347Z,14.90
2018-12-26T07:13:47.407Z,14.90
2018-12-26T07:16:17.455Z,14.90
2018-12-26T07:18:47.419Z,14.90
2018-12-26T07:21:17.386Z,14.90
2018-12-26T07:23:47.308Z,14.90
2018-12-26T07:26:17.296Z,14.90
2018-12-26T07:28:47.339Z,14.80
2018-12-26T07:31:17.320Z,14.80
2018-12-26T07:33:47.285Z,14.80
2018-12-26T07:36:17.239Z,14.80
2018-12-26T07:38:47.264Z,14.80
2018-12-26T07:41:17.196Z,14.80
2018-12-26T07:43:47.169Z,14.80
2018-12-26T07:46:17.130Z,14.80
2018-12-26T07:48:47.054Z,14.80
2018-12-26T07:51:17.038Z,14.80
2018-12-26T07:53:47.080Z,14.90
2018-12-26T07:56:17.055Z,14.90
2018-12-26T07:58:47.103Z,14.90
2018-12-26T08:01:17.086Z,14.90
2018-12-26T08:03:47.030Z,15.00
2018-12-26T08:06:16.995Z,15.00
2018-12-26T08:08:46.992Z,15.00
2018-12-26T08:11:16.958Z,15.00
2018-12-26T08:13:47.072Z,15.00
2018-12-26T08:16:17.019Z,15.10
2018-12-26T08:18:46.968Z,15.10
2018-12-26T08:21:16.963Z,15.10
2018-12-26T08:23:46.920Z,15.20
2018-12-26T08:26:16.874Z,15.20
2018-12-26T08:28:46.859Z,15.30
2018-12-26T08:31:16.788Z,15.30
2018-12-26T08:33:46.800Z,15.40
2018-12-26T08:36:16.876Z,15.50
2018-12-26T08:38:46.804Z,15.60
2018-12-26T08:41:18.571Z,15.70
2018-12-26T08:43:48.560Z,15.70
2018-12-26T08:46:18.486Z,15.80
2018-12-26T08:48:48.403Z,15.80
2018-12-26T08:51:18.385Z,15.80
2018-12-26T08:53:48.349Z,15.80
2018-12-26T08:56:18.337Z,15.80
2018-12-26T08:58:48.323Z,15.90
2018-12-26T09:01:18.360Z,15.90
2018-12-26T09:03:48.318Z,15.90
2018-12-26T09:06:18.302Z,16.00
2018-12-26T09:08:48.284Z,16.00
2018-12-26T09:11:18.265Z,16.10
2018-12-26T09:13:48.243Z,16.20
2018-12-26T09:16:18.248Z,16.30
2018-12-26T09:18:48.231Z,16.40
2018-12-26T09:21:18.194Z,16.40
2018-12-26T09:23:48.128Z,16.50
2018-12-26T09:26:18.100Z,16.60
2018-12-26T09:28:48.060Z,16.60
2018-12-26T09:31:18.062Z,16.70
2018-12-26T09:33:48.024Z,16.70
2018-12-26T09:36:18.023Z,16.70
2018-12-26T09:38:48.084Z,16.80
2018-12-26T09:41:18.046Z,16.80
2018-12-26T09:43:48.079Z,16.90
2018-12-26T09:46:18.146Z,16.90
2018-12-26T09:48:48.139Z,16.90
2018-12-26T09:51:18.231Z,17.00
2018-12-26T09:53:48.172Z,17.00
2018-12-26T09:56:18.210Z,17.00
2018-12-26T09:58:52.507Z,17.00
2018-12-26T10:01:19.802Z,17.10
2018-12-26T10:03:52.084Z,17.10
2018-12-26T10:06:22.023Z,17.20
2018-12-26T10:08:52.174Z,17.20
2018-12-26T10:11:22.456Z,17.20
2018-12-26T10:13:52.440Z,17.20
2018-12-26T10:16:22.592Z,17.30
2018-12-26T10:18:52.602Z,17.30
2018-12-26T10:21:22.679Z,17.30
2018-12-26T10:23:52.799Z,17.30
2018-12-26T10:26:22.862Z,17.30
2018-12-26T10:29:00.794Z,17.40
2018-12-26T10:31:24.583Z,17.40
2018-12-26T10:33:54.655Z,17.40
2018-12-26T10:36:24.610Z,17.40
2018-12-26T10:38:54.631Z,17.50
2018-12-26T10:41:24.682Z,17.60
2018-12-26T10:43:54.759Z,17.60
2018-12-26T10:46:24.692Z,17.60
2018-12-26T10:48:54.760Z,17.60
2018-12-26T10:51:24.664Z,17.70
2018-12-26T10:53:54.707Z,17.70
2018-12-26T10:56:24.658Z,17.80
2018-12-26T10:58:54.761Z,17.80
2018-12-26T11:01:24.731Z,17.90
2018-12-26T11:03:54.708Z,17.90
2018-12-26T11:06:24.793Z,18.00
2018-12-26T11:08:54.739Z,18.00
2018-12-26T11:11:24.823Z,18.10
2018-12-26T11:13:54.792Z,18.10
2018-12-26T11:16:24.918Z,18.20
2018-12-26T11:18:56.126Z,18.20
2018-12-26T11:21:26.139Z,18.30
2018-12-26T11:23:56.115Z,18.30
2018-12-26T11:26:26.843Z,18.30
2018-12-26T11:28:56.821Z,18.40
2018-12-26T11:31:26.892Z,18.40
2018-12-26T14:24:40.060Z,17.30
2018-12-26T14:27:10.133Z,18.10
2018-12-26T14:29:40.172Z,18.20
2018-12-26T14:32:10.158Z,18.30
2018-12-26T14:34:40.195Z,18.30
2018-12-26T14:37:10.159Z,18.30
2018-12-26T14:39:40.139Z,18.30
2018-12-26T14:42:10.190Z,18.30
2018-12-26T14:44:40.132Z,18.30
2018-12-26T14:47:10.162Z,18.30
2018-12-26T14:49:40.255Z,18.30
2018-12-26T14:52:10.231Z,18.30
2018-12-26T14:54:40.237Z,18.30
2018-12-26T14:57:10.222Z,18.30
2018-12-26T14:59:41.203Z,18.30
2018-12-26T15:02:11.306Z,18.30
2018-12-26T15:04:41.300Z,18.30
2018-12-26T15:07:11.607Z,18.20
2018-12-26T15:09:43.395Z,18.20
2018-12-26T15:12:13.475Z,18.20
2018-12-26T15:14:43.554Z,18.20
2018-12-26T15:17:13.715Z,18.20
2018-12-26T15:19:43.789Z,18.10
2018-12-26T15:22:13.761Z,18.00
2018-12-26T15:24:43.916Z,18.00
2018-12-26T15:27:13.915Z,18.00
2018-12-26T15:29:43.852Z,18.00
2018-12-26T15:32:13.907Z,18.00
2018-12-26T15:34:54.816Z,18.00
2018-12-26T15:37:24.884Z,17.90
2018-12-26T15:39:54.963Z,17.90
2018-12-26T15:42:24.921Z,17.90
2018-12-26T15:44:54.936Z,17.90
2018-12-26T15:47:24.926Z,17.90
2018-12-26T15:49:55.141Z,17.80
2018-12-26T15:52:25.112Z,17.90
2018-12-26T15:54:55.315Z,17.90
2018-12-26T15:57:25.381Z,17.80
2018-12-26T15:59:55.356Z,17.80
2018-12-26T16:02:25.427Z,17.80
2018-12-26T16:04:55.476Z,17.80
2018-12-26T16:07:25.453Z,17.80
2018-12-26T16:09:55.446Z,17.80
2018-12-26T16:12:25.480Z,17.80
2018-12-26T16:14:55.567Z,17.80
2018-12-26T16:17:25.623Z,17.80
2018-12-26T16:19:55.612Z,17.80
2018-12-26T16:22:25.569Z,17.80
2018-12-26T16:24:55.640Z,17.80
2018-12-26T16:27:25.791Z,17.80
2018-12-26T16:29:55.747Z,17.70
2018-12-26T16:32:25.768Z,17.70
2018-12-26T16:34:55.911Z,17.70
2018-12-26T16:37:26.051Z,17.70
2018-12-26T16:39:56.072Z,17.70
2018-12-26T16:42:26.202Z,17.60
2018-12-26T16:44:56.256Z,17.60
2018-12-26T16:47:26.244Z,17.60
2018-12-26T16:49:56.292Z,17.60
2018-12-26T16:52:26.522Z,17.60
2018-12-26T16:54:56.651Z,17.60
2018-12-26T16:57:26.600Z,17.60
2018-12-26T16:59:56.863Z,17.60
2018-12-26T17:02:26.807Z,17.60
2018-12-26T17:04:56.795Z,17.60
2018-12-26T17:07:26.795Z,17.50
2018-12-26T17:09:56.825Z,17.50
2018-12-26T17:12:26.757Z,17.50
2018-12-26T17:14:57.111Z,17.40
2018-12-26T17:17:27.342Z,17.40
2018-12-26T17:19:57.648Z,17.40
2018-12-26T17:22:27.656Z,17.40
2018-12-26T17:24:57.904Z,17.30
2018-12-26T17:27:28.068Z,17.30
2018-12-26T17:30:03.169Z,17.30
2018-12-26T17:32:33.320Z,17.30
2018-12-26T17:35:03.488Z,17.30
2018-12-26T17:37:33.616Z,17.30
2018-12-26T17:40:03.755Z,17.30
2018-12-26T17:42:33.872Z,17.20
2018-12-26T17:45:13.208Z,17.30
2018-12-26T17:47:43.471Z,17.20
2018-12-26T17:50:50.882Z,17.20
2018-12-26T17:54:02.824Z,17.20
2018-12-26T17:57:02.169Z,17.20
2018-12-26T17:59:40.648Z,17.20
2018-12-26T18:02:30.035Z,17.20
2018-12-26T18:04:59.993Z,17.20
2018-12-26T18:07:29.968Z,17.10
2018-12-26T18:10:00.030Z,17.10
2018-12-26T18:12:30.118Z,17.10
2018-12-26T18:15:00.159Z,17.10
2018-12-26T18:17:30.270Z,17.10
2018-12-26T18:20:00.269Z,17.10
2018-12-26T18:22:30.311Z,17.10
2018-12-26T18:25:00.770Z,17.10
2018-12-26T18:27:30.861Z,17.10
2018-12-26T18:30:03.868Z,17.10
2018-12-26T18:32:35.267Z,17.10
2018-12-26T18:35:05.349Z,17.10
2018-12-26T18:37:35.361Z,17.00
2018-12-26T18:40:06.503Z,17.00
2018-12-26T18:42:36.494Z,17.00
2018-12-26T18:45:08.183Z,17.00
2018-12-26T18:47:38.139Z,17.00
2018-12-26T18:50:10.873Z,17.00
2018-12-26T18:52:40.849Z,17.00
2018-12-26T18:55:10.948Z,17.00
2018-12-26T18:57:41.136Z,17.00
2018-12-26T19:00:12.389Z,17.00
2018-12-26T19:02:42.345Z,17.10
2018-12-26T19:05:13.133Z,17.10
2018-12-26T19:07:43.238Z,17.10
2018-12-26T19:10:13.247Z,17.10
2018-12-26T19:12:43.230Z,17.10
2018-12-26T19:15:13.211Z,17.10
2018-12-26T19:17:43.217Z,17.10
2018-12-26T19:20:13.325Z,17.10
2018-12-26T19:22:43.355Z,17.10
2018-12-26T19:25:13.418Z,17.10
2018-12-26T19:27:43.467Z,17.20
2018-12-26T19:30:14.160Z,17.10
2018-12-26T19:32:44.108Z,17.10
2018-12-26T19:35:15.229Z,17.20
2018-12-26T19:37:45.299Z,17.10
2018-12-26T19:40:15.290Z,17.20
2018-12-26T19:42:45.332Z,17.10
2018-12-26T19:45:15.292Z,17.10
2018-12-26T19:47:45.266Z,17.20
2018-12-26T19:50:15.250Z,17.20
2018-12-26T19:52:45.282Z,17.20
2018-12-26T19:55:15.292Z,17.20
2018-12-26T19:57:45.490Z,17.20
2018-12-26T20:00:15.571Z,17.20
2018-12-26T20:02:45.773Z,17.20
2018-12-26T20:05:15.944Z,17.20
2018-12-26T20:07:45.997Z,17.20
2018-12-26T20:10:16.115Z,17.20
2018-12-26T20:12:46.181Z,17.20
2018-12-26T20:15:16.161Z,17.20
2018-12-26T20:17:46.208Z,17.20
2018-12-26T20:20:16.193Z,17.20
2018-12-26T20:22:46.265Z,17.20
2018-12-26T20:25:16.213Z,17.20
2018-12-26T20:27:46.253Z,17.10
2018-12-26T20:30:16.243Z,17.10
2018-12-26T20:32:46.327Z,17.10
2018-12-26T20:35:16.387Z,17.10
2018-12-26T20:37:46.450Z,17.10
2018-12-26T20:40:16.394Z,17.10
2018-12-26T20:42:46.497Z,17.10
2018-12-26T20:45:16.558Z,17.10
2018-12-26T20:47:46.624Z,17.10
2018-12-26T20:50:16.579Z,17.10
2018-12-26T20:52:46.587Z,17.10
2018-12-26T20:55:16.574Z,17.10
2018-12-26T20:57:46.603Z,17.10
2018-12-26T21:00:16.648Z,17.10
2018-12-26T21:02:46.738Z,17.10
2018-12-26T21:05:16.799Z,17.10
2018-12-26T21:07:46.925Z,17.10
2018-12-26T21:10:16.940Z,17.10
2018-12-26T21:12:46.983Z,17.10
2018-12-26T21:15:17.068Z,17.20
2018-12-26T21:17:47.222Z,17.10
2018-12-26T21:20:17.196Z,17.10
2018-12-26T21:22:47.300Z,17.10
2018-12-26T21:25:17.263Z,17.10
2018-12-26T21:27:47.287Z,17.10
2018-12-26T21:30:17.573Z,17.10
2018-12-26T21:32:47.887Z,17.10
2018-12-26T21:35:18.027Z,17.10
2018-12-26T21:37:48.050Z,17.10
2018-12-26T21:40:18.468Z,17.10
2018-12-26T21:42:48.539Z,17.10
2018-12-26T21:45:18.556Z,17.10
2018-12-26T21:47:48.695Z,17.10
2018-12-26T21:50:18.849Z,17.10
2018-12-26T21:52:48.898Z,17.00
2018-12-26T21:55:18.874Z,17.10
2018-12-26T21:57:48.872Z,17.00
2018-12-26T22:00:19.001Z,17.00
2018-12-26T22:02:48.997Z,17.00
2018-12-26T22:05:19.199Z,17.00
2018-12-26T22:07:49.176Z,17.00
2018-12-26T22:10:19.171Z,17.00
2018-12-26T22:12:49.149Z,17.00
2018-12-26T22:15:19.166Z,17.00
2018-12-26T22:17:49.264Z,17.00
2018-12-26T22:20:19.415Z,17.10
2018-12-26T22:22:49.376Z,17.00
2018-12-26T22:25:19.378Z,17.00
2018-12-26T22:27:49.396Z,17.00
2018-12-26T22:30:19.468Z,17.00
2018-12-26T22:32:49.442Z,17.00
2018-12-26T22:35:19.496Z,17.00
2018-12-26T22:37:49.672Z,17.00
2018-12-26T22:40:19.653Z,17.00
2018-12-26T22:42:49.698Z,17.00
2018-12-26T22:45:19.776Z,17.00
2018-12-26T22:47:49.751Z,17.00
2018-12-26T22:50:19.814Z,17.00
2018-12-26T22:52:49.879Z,17.00
2018-12-26T22:55:19.934Z,17.00
2018-12-26T22:57:50.009Z,17.00
2018-12-26T23:00:25.297Z,17.00
2018-12-26T23:02:55.361Z,17.00
2018-12-26T23:05:25.416Z,17.00
2018-12-26T23:07:55.387Z,17.00
2018-12-26T23:10:25.360Z,17.00
2018-12-26T23:12:55.432Z,17.00
2018-12-26T23:15:25.524Z,17.00
2018-12-26T23:17:55.507Z,17.00
2018-12-26T23:20:25.558Z,17.00
2018-12-26T23:22:55.681Z,17.00
2018-12-26T23:25:25.773Z,17.00
2018-12-26T23:27:55.755Z,16.90
2018-12-26T23:30:25.794Z,17.00
2018-12-26T23:32:55.903Z,17.00
2018-12-26T23:35:25.933Z,16.90
2018-12-26T23:37:55.921Z,16.90
2018-12-26T23:40:25.933Z,16.90
2018-12-26T23:42:55.935Z,17.00
2018-12-26T23:45:25.896Z,17.00
2018-12-26T23:47:55.941Z,17.00
2018-12-26T23:50:25.949Z,17.00
2018-12-26T23:52:55.951Z,17.00
2018-12-26T23:55:25.963Z,17.00
2018-12-26T23:57:56.120Z,16.90
